createdAt,value
2022-11-08T00:02:24.973Z,8.21
2022-11-08T00:04:52.012Z,8.18
2022-11-08T00:07:37.683Z,8.25
2022-11-08T00:10:23.411Z,8.26
2022-11-08T00:13:09.180Z,8.32
2022-11-08T00:15:39.107Z,8.34
2022-11-08T00:18:06.526Z,8.37
2022-11-08T00:20:33.848Z,8.31
2022-11-08T00:23:00.707Z,8.24
2022-11-08T00:25:27.458Z,8.24
2022-11-08T00:27:54.215Z,8.22
2022-11-08T00:30:21.123Z,8.14
2022-11-08T00:32:47.850Z,8.12
2022-11-08T00:35:14.705Z,8.16
2022-11-08T00:37:41.501Z,8.16
2022-11-08T00:40:08.667Z,8.10
2022-11-08T00:42:35.512Z,8.08
2022-11-08T00:45:02.218Z,8.06
2022-11-08T00:47:28.975Z,8.06
2022-11-08T00:49:55.748Z,8.07
2022-11-08T00:52:22.629Z,8.05
2022-11-08T00:54:49.501Z,8.02
2022-11-08T00:57:16.200Z,8.01
2022-11-08T00:59:43.218Z,8.00
2022-11-08T01:02:10.082Z,8.01
2022-11-08T01:04:36.870Z,8.01
2022-11-08T01:07:03.617Z,8.02
2022-11-08T01:09:30.383Z,7.96
2022-11-08T01:11:57.119Z,7.94
2022-11-08T01:14:23.972Z,7.97
2022-11-08T01:16:50.864Z,8.00
2022-11-08T01:19:17.683Z,8.01
2022-11-08T01:21:44.469Z,8.00
2022-11-08T01:24:11.230Z,7.99
2022-11-08T01:26:38.010Z,8.00
2022-11-08T01:29:04.870Z,8.00
2022-11-08T01:31:32.490Z,7.95
2022-11-08T01:33:59.687Z,7.92
2022-11-08T01:36:27.385Z,7.93
2022-11-08T01:38:54.675Z,7.96
2022-11-08T01:41:22.511Z,7.90
2022-11-08T01:43:50.409Z,7.91
2022-11-08T01:46:20.316Z,7.93
2022-11-08T01:48:59.492Z,7.93
2022-11-08T01:51:37.184Z,7.92
2022-11-08T01:54:07.011Z,7.95
2022-11-08T01:56:33.890Z,7.92
2022-11-08T01:59:02.967Z,7.90
2022-11-08T02:01:30.002Z,7.90
2022-11-08T02:03:58.095Z,7.86
2022-11-08T02:06:25.254Z,7.86
2022-11-08T02:08:52.022Z,7.86
2022-11-08T02:11:19.054Z,7.87
2022-11-08T02:13:45.939Z,7.87
2022-11-08T02:16:14.029Z,7.83
2022-11-08T02:18:42.329Z,7.85
2022-11-08T02:21:09.076Z,7.84
2022-11-08T02:24:14.434Z,7.84
2022-11-08T02:26:41.753Z,7.84
2022-11-08T02:29:27.597Z,7.88
2022-11-08T02:31:54.794Z,7.85
2022-11-08T02:34:23.943Z,7.81
2022-11-08T02:36:50.977Z,7.78
2022-11-08T02:39:18.316Z,7.82
2022-11-08T02:41:45.069Z,7.79
2022-11-08T02:44:11.903Z,7.77
2022-11-08T02:46:38.713Z,7.81
2022-11-08T02:49:05.509Z,7.83
2022-11-08T02:51:32.325Z,7.83
2022-11-08T02:53:59.059Z,7.83
2022-11-08T02:56:25.883Z,7.81
2022-11-08T02:58:52.870Z,7.80
2022-11-08T03:01:19.661Z,7.79
2022-11-08T03:03:46.482Z,7.80
2022-11-08T03:06:13.600Z,7.74
2022-11-08T03:08:40.395Z,7.73
2022-11-08T03:11:07.161Z,7.78
2022-11-08T03:13:35.061Z,7.72
2022-11-08T03:16:02.717Z,7.73
2022-11-08T03:18:29.678Z,7.72
2022-11-08T03:20:56.477Z,7.72
2022-11-08T03:23:23.414Z,7.70
2022-11-08T03:25:50.130Z,7.68
2022-11-08T03:28:21.695Z,7.67
2022-11-08T03:30:50.543Z,7.65
2022-11-08T03:33:17.487Z,7.65
2022-11-08T03:35:44.239Z,7.66
2022-11-08T03:38:11.103Z,7.64
2022-11-08T03:40:37.813Z,7.63
2022-11-08T03:43:04.638Z,7.61
2022-11-08T03:45:31.549Z,7.60
2022-11-08T03:50:42.659Z,7.61
2022-11-08T03:53:09.443Z,7.62
2022-11-08T03:55:36.325Z,7.61
2022-11-08T03:58:03.280Z,7.59
2022-11-08T04:00:30.157Z,7.59
2022-11-08T04:03:01.519Z,7.61
2022-11-08T04:05:28.246Z,7.63
2022-11-08T04:07:55.014Z,7.66
2022-11-08T04:10:21.766Z,7.65
2022-11-08T04:13:07.366Z,7.64
2022-11-08T04:15:34.268Z,7.68
2022-11-08T04:18:19.978Z,7.67
2022-11-08T04:21:06.390Z,7.65
2022-11-08T04:23:36.820Z,7.64
2022-11-08T04:26:05.441Z,7.62
2022-11-08T04:28:33.103Z,7.63
2022-11-08T04:31:01.405Z,7.66
2022-11-08T04:33:28.204Z,7.67
2022-11-08T04:35:54.988Z,7.65
2022-11-08T04:38:22.426Z,7.66
2022-11-08T04:40:52.199Z,7.68
2022-11-08T04:43:18.956Z,7.68
2022-11-08T04:45:45.777Z,7.69
2022-11-08T04:48:12.551Z,7.67
2022-11-08T04:50:39.282Z,7.63
2022-11-08T04:53:06.117Z,7.69
2022-11-08T04:55:33.146Z,7.76
2022-11-08T04:58:00.248Z,7.79
2022-11-08T05:00:27.501Z,7.78
2022-11-08T05:02:54.681Z,7.77
2022-11-08T05:05:21.945Z,7.75
2022-11-08T05:07:48.920Z,7.77
2022-11-08T05:10:15.860Z,7.76
2022-11-08T05:12:42.590Z,7.74
2022-11-08T05:15:09.716Z,7.77
2022-11-08T05:17:36.496Z,7.80
2022-11-08T05:20:22.465Z,7.88
2022-11-08T05:23:08.279Z,7.90
2022-11-08T05:25:38.506Z,7.92
2022-11-08T05:28:05.262Z,7.95
2022-11-08T05:30:32.040Z,8.00
2022-11-08T05:32:58.809Z,8.01
2022-11-08T05:35:25.723Z,8.01
2022-11-08T05:37:52.520Z,8.06
2022-11-08T05:40:19.254Z,8.12
2022-11-08T05:42:46.062Z,8.14
2022-11-08T05:45:12.914Z,8.16
2022-11-08T05:47:39.652Z,8.23
2022-11-08T05:50:06.679Z,8.33
2022-11-08T05:52:33.585Z,8.45
2022-11-08T05:55:00.568Z,8.55
2022-11-08T05:57:27.293Z,8.62
2022-11-08T05:59:54.227Z,8.65
2022-11-08T06:02:21.164Z,8.73
2022-11-08T06:04:48.061Z,8.83
2022-11-08T06:07:14.822Z,8.79
2022-11-08T06:09:41.740Z,8.85
2022-11-08T06:12:08.749Z,8.83
2022-11-08T06:14:35.599Z,8.93
2022-11-08T06:17:02.362Z,8.92
2022-11-08T06:19:29.096Z,8.93
2022-11-08T06:21:55.919Z,9.00
2022-11-08T06:24:22.964Z,9.06
2022-11-08T06:26:49.707Z,9.20
2022-11-08T06:29:16.484Z,9.26
2022-11-08T06:31:43.477Z,9.31
2022-11-08T06:34:10.826Z,9.38
2022-11-08T06:36:37.601Z,9.47
2022-11-08T06:39:04.557Z,9.58
2022-11-08T06:41:32.572Z,9.67
2022-11-08T06:43:59.822Z,9.78
2022-11-08T06:46:26.791Z,9.89
2022-11-08T06:48:53.582Z,9.98
2022-11-08T06:51:20.661Z,10.08
2022-11-08T06:53:47.723Z,10.21
2022-11-08T06:56:14.582Z,10.31
2022-11-08T06:58:41.507Z,10.36
2022-11-08T07:01:09.994Z,10.55
2022-11-08T07:03:36.969Z,10.65
2022-11-08T07:38:23.998Z,10.52
2022-11-08T07:40:52.079Z,10.66
2022-11-08T07:43:19.993Z,10.90
2022-11-08T07:45:48.638Z,11.08
2022-11-08T07:48:16.186Z,11.37
2022-11-08T07:50:43.616Z,11.60
2022-11-08T07:53:11.673Z,11.79
2022-11-08T07:55:39.816Z,12.04
2022-11-08T07:58:08.205Z,12.13
2022-11-08T08:00:37.785Z,12.16
2022-11-08T08:03:07.874Z,12.21
2022-11-08T08:05:40.673Z,12.27
2022-11-08T08:08:11.266Z,12.35
2022-11-08T08:10:40.072Z,12.43
2022-11-08T08:13:15.725Z,12.49
2022-11-08T08:15:46.381Z,12.53
2022-11-08T08:18:14.069Z,12.58
2022-11-08T08:20:41.518Z,12.56
2022-11-08T08:23:09.349Z,12.56
2022-11-08T08:25:36.673Z,12.54
2022-11-08T08:28:06.545Z,12.52
2022-11-08T08:30:34.972Z,12.47
2022-11-08T08:33:27.425Z,12.41
2022-11-08T08:36:02.691Z,12.37
2022-11-08T08:38:31.617Z,12.26
2022-11-08T08:41:02.937Z,12.26
2022-11-08T08:43:33.001Z,12.21
2022-11-08T08:46:02.464Z,12.08
2022-11-08T08:48:30.980Z,11.95
2022-11-08T08:50:58.337Z,11.94
2022-11-08T08:53:26.426Z,11.97
2022-11-08T08:55:53.985Z,12.02
2022-11-08T08:58:23.006Z,12.17
2022-11-08T09:03:41.457Z,12.22
2022-11-08T09:06:11.192Z,12.29
2022-11-08T09:08:38.721Z,12.36
2022-11-08T09:11:09.223Z,12.41
2022-11-08T09:13:39.738Z,12.53
2022-11-08T09:16:08.574Z,12.71
2022-11-08T09:18:36.806Z,12.84
2022-11-08T09:21:04.766Z,12.98
2022-11-08T09:23:42.951Z,13.18
2022-11-08T09:26:11.294Z,13.24
2022-11-08T09:28:39.533Z,13.43
2022-11-08T09:31:09.738Z,13.58
2022-11-08T09:33:38.136Z,13.71
2022-11-08T09:36:07.322Z,13.77
2022-11-08T09:38:35.319Z,13.90
2022-11-08T09:41:12.309Z,13.89
2022-11-08T09:43:57.273Z,14.02
2022-11-08T09:46:51.810Z,14.18
2022-11-08T09:49:34.161Z,14.33
2022-11-08T09:52:06.790Z,14.32
2022-11-08T09:54:45.841Z,14.40
2022-11-08T09:57:25.130Z,14.46
2022-11-08T10:00:01.733Z,14.60
2022-11-08T10:02:29.336Z,14.69
2022-11-08T10:05:06.188Z,14.78
2022-11-08T10:07:37.528Z,14.84
2022-11-08T10:10:38.117Z,15.01
2022-11-08T10:13:23.305Z,15.19
2022-11-08T10:16:02.814Z,15.39
2022-11-08T10:18:36.499Z,15.39
2022-11-08T10:21:25.486Z,15.36
2022-11-08T10:24:05.133Z,15.46
2022-11-08T10:26:48.332Z,15.50
2022-11-08T10:29:20.012Z,15.57
2022-11-08T10:32:04.695Z,15.64
2022-11-08T10:34:45.075Z,15.71
2022-11-08T10:37:15.456Z,15.84
2022-11-08T10:39:59.451Z,16.01
2022-11-08T10:42:39.954Z,16.08
2022-11-08T10:45:18.312Z,16.07
2022-11-08T10:47:47.350Z,16.05
2022-11-08T10:50:20.253Z,16.04
2022-11-08T10:53:01.374Z,16.32
2022-11-08T10:55:47.831Z,16.36
2022-11-08T10:58:44.378Z,16.31
2022-11-08T11:01:14.914Z,16.24
2022-11-08T11:03:44.732Z,16.24
2022-11-08T11:06:31.129Z,16.22
2022-11-08T11:09:01.654Z,16.30
2022-11-08T11:11:32.160Z,16.49
2022-11-08T11:14:22.972Z,16.55
2022-11-08T11:17:12.077Z,16.58
2022-11-08T11:19:48.353Z,16.49
2022-11-08T11:22:16.143Z,16.62
2022-11-08T11:24:51.416Z,16.75
2022-11-08T11:27:25.059Z,16.76
2022-11-08T11:30:13.429Z,16.64
2022-11-08T11:32:58.336Z,16.56
2022-11-08T11:35:32.666Z,16.56
2022-11-08T11:38:08.304Z,16.52
2022-11-08T11:40:44.350Z,16.49
2022-11-08T11:43:34.725Z,16.39
2022-11-08T11:46:33.591Z,16.36
2022-11-08T11:49:13.210Z,16.40
2022-11-08T11:51:58.033Z,16.28
2022-11-08T11:54:34.368Z,16.18
2022-11-08T11:57:08.897Z,16.14
2022-11-08T12:00:21.796Z,16.20
2022-11-08T12:18:43.990Z,16.24
2022-11-08T12:21:11.963Z,16.29
2022-11-08T12:23:48.818Z,16.38
2022-11-08T12:26:25.152Z,16.46
2022-11-08T12:28:57.355Z,16.47
2022-11-08T12:31:32.490Z,16.42
2022-11-08T12:34:35.783Z,16.47
2022-11-08T12:37:24.411Z,16.50
2022-11-08T12:40:01.324Z,16.50
2022-11-08T12:42:55.010Z,16.44
2022-11-08T12:46:20.540Z,16.64
2022-11-08T12:49:00.320Z,16.64
2022-11-08T12:51:43.441Z,16.74
2022-11-08T12:54:23.037Z,16.71
2022-11-08T12:56:53.314Z,16.78
2022-11-08T12:59:29.731Z,16.80
2022-11-08T13:01:59.181Z,16.94
2022-11-08T13:04:29.938Z,17.03
2022-11-08T13:07:18.464Z,17.03
2022-11-08T13:09:59.292Z,17.00
2022-11-08T13:12:53.378Z,16.98
2022-11-08T13:15:25.891Z,17.00
2022-11-08T13:18:10.186Z,16.99
2022-11-08T13:20:43.742Z,16.83
2022-11-08T13:23:30.755Z,16.70
2022-11-08T13:26:26.675Z,16.56
2022-11-08T13:28:55.048Z,16.52
2022-11-08T13:31:43.055Z,16.47
2022-11-08T13:34:35.860Z,16.41
2022-11-08T13:40:55.846Z,16.17
2022-11-08T14:51:27.563Z,14.57
2022-11-08T14:58:36.055Z,14.24
2022-11-08T15:05:48.472Z,13.90
2022-11-08T15:12:03.728Z,13.56
2022-11-08T15:15:20.510Z,13.46
2022-11-08T15:21:37.597Z,13.13
2022-11-08T15:24:35.921Z,13.01
2022-11-08T15:28:02.868Z,12.87
2022-11-08T15:30:39.799Z,12.71
2022-11-08T17:36:30.240Z,11.34
2022-11-08T17:38:57.933Z,11.32
2022-11-08T17:41:25.424Z,11.33
2022-11-08T17:43:56.114Z,11.29
2022-11-08T17:46:23.783Z,11.21
2022-11-08T17:48:51.546Z,11.15
2022-11-08T17:51:24.426Z,11.10
2022-11-08T17:54:30.275Z,11.06
2022-11-08T17:57:00.748Z,11.07
2022-11-08T17:59:31.895Z,11.05
2022-11-08T18:01:59.828Z,11.06
2022-11-08T18:07:45.460Z,10.96
2022-11-08T18:10:23.241Z,10.91
2022-11-08T18:12:50.699Z,10.84
2022-11-08T18:15:39.775Z,10.80
2022-11-08T18:18:13.360Z,10.77
2022-11-08T18:21:11.974Z,10.73
2022-11-08T18:27:00.670Z,10.60
2022-11-08T18:29:27.785Z,10.55
2022-11-08T18:31:59.579Z,10.47
2022-11-08T18:34:30.289Z,10.43
2022-11-08T18:37:00.356Z,10.33
2022-11-08T18:39:28.024Z,10.22
2022-11-08T18:41:55.460Z,10.22
2022-11-08T18:44:22.986Z,10.12
2022-11-08T18:46:53.638Z,9.99
2022-11-08T18:49:21.157Z,9.96
2022-11-08T18:51:52.846Z,9.86
2022-11-08T18:54:20.823Z,9.78
2022-11-08T18:56:48.816Z,9.77
2022-11-08T18:59:15.765Z,9.74
2022-11-08T19:01:43.271Z,9.67
2022-11-08T19:04:13.609Z,9.63
2022-11-08T19:06:48.838Z,9.62
2022-11-08T19:11:28.117Z,9.56
2022-11-08T19:12:10.819Z,9.54
2022-11-08T19:14:38.631Z,9.53
2022-11-08T19:17:06.017Z,9.55
2022-11-08T19:19:35.116Z,9.54
2022-11-08T19:22:09.632Z,9.56
2022-11-08T19:24:37.096Z,9.48
2022-11-08T19:27:04.827Z,9.48
2022-11-08T19:29:32.330Z,9.45
2022-11-08T19:34:52.828Z,9.22
2022-11-08T19:37:19.987Z,9.15
2022-11-08T19:39:49.977Z,9.15
2022-11-08T19:42:17.213Z,9.09
2022-11-08T19:44:47.356Z,9.04
2022-11-08T19:47:14.793Z,8.98
2022-11-08T19:49:42.215Z,8.93
2022-11-08T19:52:09.688Z,8.92
2022-11-08T19:54:37.203Z,8.88
2022-11-08T19:57:05.834Z,8.88
2022-11-08T19:59:33.910Z,8.88
2022-11-08T20:02:23.780Z,8.81
2022-11-08T20:04:48.999Z,8.74
2022-11-08T20:07:17.510Z,8.65
2022-11-08T20:09:47.952Z,8.63
2022-11-08T20:12:15.352Z,8.59
2022-11-08T20:14:42.650Z,8.54
2022-11-08T20:17:09.900Z,8.51
2022-11-08T20:19:37.452Z,8.52
2022-11-08T20:22:04.626Z,8.55
2022-11-08T20:24:31.948Z,8.50
2022-11-08T20:26:59.337Z,8.49
2022-11-08T20:29:29.845Z,8.50
2022-11-08T20:31:57.387Z,8.43
2022-11-08T20:34:26.310Z,8.43
2022-11-08T20:36:54.343Z,8.40
2022-11-08T20:39:21.811Z,8.42
2022-11-08T20:41:49.228Z,8.39
2022-11-08T20:44:17.082Z,8.40
2022-11-08T20:46:44.701Z,8.36
2022-11-08T20:49:12.006Z,8.39
2022-11-08T20:51:39.243Z,8.36
2022-11-08T20:54:07.530Z,8.35
2022-11-08T20:56:36.558Z,8.34
2022-11-08T20:59:04.311Z,8.34
2022-11-08T21:01:33.222Z,8.34
2022-11-08T21:04:01.500Z,8.34
2022-11-08T21:06:32.946Z,8.33
2022-11-08T21:11:49.643Z,8.39
2022-11-08T21:14:47.892Z,8.42
2022-11-08T21:17:22.448Z,8.53
2022-11-08T21:19:51.378Z,8.49
2022-11-08T21:22:29.673Z,8.46
2022-11-08T21:25:00.437Z,8.43
2022-11-08T21:27:34.578Z,8.45
2022-11-08T21:30:04.987Z,8.51
2022-11-08T21:33:05.173Z,8.55
2022-11-08T21:35:35.908Z,8.53
2022-11-08T21:38:04.750Z,8.56
2022-11-08T21:40:37.006Z,8.61
2022-11-08T21:43:09.802Z,8.62
2022-11-08T21:45:37.461Z,8.68
2022-11-08T21:48:14.153Z,8.76
2022-11-08T21:50:47.584Z,8.78
2022-11-08T21:53:19.116Z,8.73
2022-11-08T21:55:49.125Z,8.76
2022-11-08T21:58:16.673Z,8.77
2022-11-08T22:00:51.456Z,8.75
2022-11-08T22:03:28.184Z,8.81
2022-11-08T22:05:55.514Z,8.86
2022-11-08T22:08:31.261Z,8.90
2022-11-08T22:10:58.714Z,8.93
2022-11-08T22:13:38.061Z,8.96
2022-11-08T22:16:08.778Z,8.92
2022-11-08T22:19:03.533Z,9.00
2022-11-08T22:21:39.956Z,9.00
2022-11-08T22:24:15.940Z,8.95
2022-11-08T22:26:48.637Z,8.99
2022-11-08T22:29:16.983Z,8.99
2022-11-08T22:32:04.523Z,9.05
2022-11-08T22:37:45.588Z,9.09
2022-11-08T22:40:17.790Z,9.10
2022-11-08T22:42:47.513Z,9.10
2022-11-08T22:45:36.927Z,9.17
2022-11-08T22:48:04.339Z,9.14
2022-11-08T22:50:31.919Z,9.17
2022-11-08T22:52:59.480Z,9.15
2022-11-08T22:55:41.308Z,9.14
2022-11-08T22:58:23.322Z,9.15
2022-11-08T23:01:20.271Z,9.08
2022-11-08T23:04:00.145Z,9.06
2022-11-08T23:06:32.114Z,8.99
2022-11-08T23:09:07.835Z,8.93
2022-11-08T23:12:08.329Z,8.82
2022-11-08T23:17:44.617Z,8.69
2022-11-08T23:20:32.975Z,8.65
2022-11-08T23:23:49.276Z,8.58
2022-11-08T23:26:10.032Z,8.51
2022-11-08T23:28:56.231Z,8.42
2022-11-08T23:32:01.629Z,8.42
2022-11-08T23:34:29.907Z,8.38
2022-11-08T23:36:57.049Z,8.30
2022-11-08T23:39:24.518Z,8.25
2022-11-08T23:42:10.695Z,8.21
2022-11-08T23:44:38.350Z,8.25
2022-11-08T23:47:29.021Z,8.23
2022-11-08T23:49:56.638Z,8.21
2022-11-08T23:52:39.371Z,8.19
2022-11-08T23:55:11.573Z,8.21
2022-11-08T23:57:39.205Z,8.18
